Cassiopeia Leader — 7JZI — position and weather

sailwx.info

Track history (hours):
 
Tides and Currents Weather Stations Pressure Air Temp Water Temp Dewpoint Dewpoint Depression Visibility Wind Speed Wind Dir Waves Ship Positions

Cassiopeia Leader

Last reported at 2017-Oct-19 19:43 UTC. Time now 2017-Oct-20 01:16 UTC.
Position N 40°44' E 029°24'.

Length 200 m; draft 8 m.

Type: Cargo ship. MMSI: 431013000.

Date/timePositionNaut miles runAvg speedWind from/ knotsBaromVisibWave heightAir tempDewpointWater temp
2017-Oct-19 19:43N 40°44' E 029°24'2 8.5
2017-Oct-19 19:29N 40°43' E 029°21'2 5.0
2017-Oct-19 19:00N 40°44' E 029°18'713.6
2017-Oct-19 18:30N 40°43' E 029°09'713.9
2017-Oct-19 18:00N 40°43' E 029°00'916.7
2017-Oct-19 17:28N 40°43' E 028°48'816.3
2017-Oct-19 16:58N 40°40' E 028°38'816.3
2017-Oct-19 16:27N 40°39' E 028°27'5 1.9
2017-Oct-19 13:42N 40°38' E 028°20'1 0.2
2017-Oct-19 08:42N 40°38' E 028°21'0 0.4
2017-Oct-19 08:30N 40°38' E 028°21'0 0.4
2017-Oct-19 08:00N 40°38' E 028°22'1 2.5
2017-Oct-19 07:30N 40°37' E 028°22'3 5.3
2017-Oct-19 07:00N 40°35' E 028°21'6 0.9
2017-Oct-19 00:37N 40°39' E 028°16'160 9.2
2017-Oct-18 07:11N 39°10' E 025°23'210.5
2017-Oct-18 07:00N 39°08' E 025°22'291 9.8
2017-Oct-17 01:20N 36°10' E 020°32'513.4
2017-Oct-17 00:59N 36°10' E 020°26'1811.5
2017-Oct-16 23:24N 36°11' E 020°03'511.7
2017-Oct-16 23:00N 36°11' E 019°58'611.4
2017-Oct-16 22:30N 36°12' E 019°50'21211.7
2017-Oct-16 04:29N 36°24' E 015°28'1517.4
2017-Oct-16 03:39N 36°24' E 015°10'316.8
2017-Oct-16 03:29N 36°24' E 015°07'817.1
2017-Oct-16 03:00N 36°26' E 014°57'917.1
2017-Oct-16 02:30N 36°26' E 014°46'714.5
2017-Oct-16 02:00N 36°27' E 014°37'612.2
2017-Oct-16 01:30N 36°28' E 014°30'612.4
2017-Oct-16 01:00N 36°30' E 014°23'612.6
2017-Oct-16 00:30N 36°32' E 014°15'612.3
2017-Oct-16 00:00N 36°34' E 014°08'612.2
2017-Oct-15 23:31N 36°36' E 014°01'612.1
2017-Oct-15 23:01N 36°37' E 013°53'612.0
2017-Oct-15 22:30N 36°39' E 013°46'612.0
2017-Oct-15 22:00N 36°41' E 013°39'612.1
2017-Oct-15 21:30N 36°42' E 013°32'612.0
2017-Oct-15 21:00N 36°44' E 013°25'611.8
2017-Oct-15 20:30N 36°46' E 013°18'611.7
2017-Oct-15 20:00N 36°48' E 013°11'611.7
2017-Oct-15 19:30N 36°50' E 013°04'611.7
2017-Oct-15 19:00N 36°52' E 012°57'611.6
2017-Oct-15 18:30N 36°54' E 012°50'611.9
2017-Oct-15 18:00N 36°56' E 012°43'612.2
2017-Oct-15 17:30N 36°58' E 012°36'611.9
2017-Oct-15 17:00N 36°60' E 012°29'911.5
2017-Oct-15 16:14N 37°02' E 012°18'311.6
2017-Oct-15 16:00N 37°03' E 012°15'611.5
2017-Oct-15 15:30N 37°06' E 012°08'27412.6
2017-Oct-14 17:47N 37°22' E 006°25'9411.0
2017-Oct-14 09:15N 37°11' E 004°27'311.6
2017-Oct-14 09:00N 37°11' E 004°24'611.5
2017-Oct-14 08:28N 37°10' E 004°16'811.6
2017-Oct-14 07:45N 37°09' E 004°06'4311.8
2017-Oct-14 04:06N 37°02' E 003°13'112.2
2017-Oct-14 03:59N 37°02' E 003°11'1812.1
2017-Oct-14 02:30N 36°58' E 002°49'612.0
2017-Oct-14 02:00N 36°57' E 002°41'611.7
2017-Oct-14 01:30N 36°57' E 002°34'611.7
2017-Oct-14 01:00N 36°56' E 002°27'611.8
2017-Oct-14 00:27N 36°55' E 002°19'612.0
2017-Oct-13 23:58N 36°54' E 002°12'612.0
2017-Oct-13 23:30N 36°54' E 002°05'612.1
2017-Oct-13 23:00N 36°53' E 001°57'612.0
2017-Oct-13 22:30N 36°52' E 001°50'711.8
2017-Oct-13 21:54N 36°51' E 001°41'511.8
2017-Oct-13 21:30N 36°50' E 001°35'612.0
2017-Oct-13 21:00N 36°49' E 001°28'612.5
2017-Oct-13 20:30N 36°48' E 001°20'612.3
2017-Oct-13 20:00N 36°47' E 001°13'612.1
2017-Oct-13 19:30N 36°46' E 001°05'611.9
2017-Oct-13 19:00N 36°46' E 000°58'611.8
2017-Oct-13 18:30N 36°45' E 000°51'612.3
2017-Oct-13 18:00N 36°44' E 000°43'612.3
2017-Oct-13 17:30N 36°43' E 000°35'612.5
2017-Oct-13 17:00N 36°42' E 000°28'612.4
2017-Oct-13 16:30N 36°41' E 000°20'612.4
2017-Oct-13 16:00N 36°40' E 000°12'612.3
2017-Oct-13 15:30N 36°39' E 000°05'612.3
2017-Oct-13 15:00N 36°38' W 000°03'712.3
2017-Oct-13 14:25N 36°37' W 000°12'712.3
2017-Oct-13 13:51N 36°36' W 000°20'612.3
2017-Oct-13 13:24N 36°35' W 000°27'512.3
2017-Oct-13 13:00N 36°34' W 000°33'612.3
2017-Oct-13 12:30N 36°33' W 000°40'612.5
2017-Oct-13 12:00N 36°32' W 000°48'712.4
2017-Oct-13 11:25N 36°31' W 000°57'712.3
2017-Oct-13 10:52N 36°30' W 001°05'912.2
2017-Oct-13 10:07N 36°29' W 001°17'112.2
2017-Oct-13 10:00N 36°28' W 001°18'612.5
2017-Oct-13 09:30N 36°27' W 001°26'714.4
2017-Oct-13 09:00N 36°26' W 001°35'917.6
2017-Oct-13 08:30N 36°25' W 001°45'1017.4
2017-Oct-13 07:55N 36°23' W 001°58'14714.5
2017-Oct-12 21:45N 36°01' W 004°59'311.4
2017-Oct-12 21:27N 36°01' W 005°03'511.9
2017-Oct-12 21:00N 36°01' W 005°09'612.1
2017-Oct-12 20:30N 35°60' W 005°17'611.9
2017-Oct-12 20:00N 35°58' W 005°24'611.4
2017-Oct-12 19:30N 35°56' W 005°30'510.3
2017-Oct-12 18:59N 35°55' W 005°37'11 8.7
2017-Oct-12 17:45N 35°54' W 005°50'2 9.3
2017-Oct-12 17:30N 35°54' W 005°53'5 9.1
2017-Oct-12 16:59N 35°54' W 005°59'5 9.0
2017-Oct-12 16:28N 35°54' W 006°04'5 9.6
2017-Oct-12 16:00N 35°54' W 006°10'5 9.9
2017-Oct-12 15:30N 35°54' W 006°16'510.1
2017-Oct-12 15:00N 35°54' W 006°22'510.2
2017-Oct-12 14:30N 35°54' W 006°28'510.3
2017-Oct-12 14:00N 35°56' W 006°35'510.6
2017-Oct-12 13:30N 35°57' W 006°41'510.5
2017-Oct-12 12:59N 35°59' W 006°47'510.5
2017-Oct-12 12:29N 36°00' W 006°53'610.7
2017-Oct-12 11:54N 36°02' W 007°01'410.9
2017-Oct-12 11:30N 36°03' W 007°06'510.8
2017-Oct-12 11:00N 36°05' W 007°13'610.8
2017-Oct-12 10:28N 36°06' W 007°19'511.0
2017-Oct-12 10:01N 36°08' W 007°25'611.1
2017-Oct-12 09:30N 36°09' W 007°32'510.9
2017-Oct-12 09:00N 36°11' W 007°38'611.2
2017-Oct-12 08:30N 36°12' W 007°45'611.4
2017-Oct-12 08:00N 36°14' W 007°52'611.2
2017-Oct-12 07:29N 36°16' W 007°59'510.8
2017-Oct-12 06:59N 36°17' W 008°05'511.1
2017-Oct-12 06:30N 36°19' W 008°12'611.4
2017-Oct-12 06:01N 36°20' W 008°18'611.6
2017-Oct-12 05:30N 36°22' W 008°25'611.5
2017-Oct-12 05:00N 36°23' W 008°32'611.9
2017-Oct-12 04:30N 36°25' W 008°39'611.6
2017-Oct-12 03:57N 36°27' W 008°47'511.5
2017-Oct-12 03:30N 36°28' W 008°53'612.1
2017-Oct-12 02:59N 36°30' W 009°01'612.3
2017-Oct-12 02:30N 36°31' W 009°08'612.2
2017-Oct-12 02:00N 36°33' W 009°15'611.7
2017-Oct-12 01:30N 36°36' W 009°21'1111.7
2017-Oct-12 00:34N 36°45' W 009°30'211.3
2017-Oct-12 00:26N 36°46' W 009°31'511.2
2017-Oct-12 00:01N 36°50' W 009°34'5011.3
2017-Oct-11 19:34N 37°39' W 009°48'111.4
2017-Oct-11 19:26N 37°40' W 009°48'511.5
2017-Oct-11 19:00N 37°45' W 009°50'611.7
2017-Oct-11 18:30N 37°51' W 009°51'611.6
2017-Oct-11 18:00N 37°57' W 009°53'612.1
2017-Oct-11 17:30N 38°02' W 009°54'611.7
2017-Oct-11 17:00N 38°08' W 009°56'24012.4
2017-Oct-10 21:42N 42°08' W 010°06'  
Track history (hours):
 
Tides and Currents Weather Stations Pressure Air Temp Water Temp Dewpoint Dewpoint Depression Visibility Wind Speed Wind Dir Waves Ship Positions

Cassiopeia Leader

Last reported at 2017-Oct-19 19:43 UTC. Time now 2017-Oct-20 01:16 UTC.
Position N 40°44' E 029°24'.

Length 200 m; draft 8 m.

Type: Cargo ship. MMSI: 431013000.

Date/timePositionNaut miles runAvg speedWind from/ knotsBaromVisibWave heightAir tempDewpointWater temp
2017-Oct-19 19:43N 40°44' E 029°24'2 8.5
2017-Oct-19 19:29N 40°43' E 029°21'2 5.0
2017-Oct-19 19:00N 40°44' E 029°18'713.6
2017-Oct-19 18:30N 40°43' E 029°09'713.9
2017-Oct-19 18:00N 40°43' E 029°00'916.7
2017-Oct-19 17:28N 40°43' E 028°48'816.3
2017-Oct-19 16:58N 40°40' E 028°38'816.3
2017-Oct-19 16:27N 40°39' E 028°27'5 1.9
2017-Oct-19 13:42N 40°38' E 028°20'1 0.2
2017-Oct-19 08:42N 40°38' E 028°21'0 0.4
2017-Oct-19 08:30N 40°38' E 028°21'0 0.4
2017-Oct-19 08:00N 40°38' E 028°22'1 2.5
2017-Oct-19 07:30N 40°37' E 028°22'3 5.3
2017-Oct-19 07:00N 40°35' E 028°21'6 0.9
2017-Oct-19 00:37N 40°39' E 028°16'160 9.2
2017-Oct-18 07:11N 39°10' E 025°23'210.5
2017-Oct-18 07:00N 39°08' E 025°22'291 9.8
2017-Oct-17 01:20N 36°10' E 020°32'513.4
2017-Oct-17 00:59N 36°10' E 020°26'1811.5
2017-Oct-16 23:24N 36°11' E 020°03'511.7
2017-Oct-16 23:00N 36°11' E 019°58'611.4
2017-Oct-16 22:30N 36°12' E 019°50'21211.7
2017-Oct-16 04:29N 36°24' E 015°28'1517.4
2017-Oct-16 03:39N 36°24' E 015°10'316.8
2017-Oct-16 03:29N 36°24' E 015°07'817.1
2017-Oct-16 03:00N 36°26' E 014°57'917.1
2017-Oct-16 02:30N 36°26' E 014°46'714.5
2017-Oct-16 02:00N 36°27' E 014°37'612.2
2017-Oct-16 01:30N 36°28' E 014°30'612.4
2017-Oct-16 01:00N 36°30' E 014°23'612.6
2017-Oct-16 00:30N 36°32' E 014°15'612.3
2017-Oct-16 00:00N 36°34' E 014°08'612.2
2017-Oct-15 23:31N 36°36' E 014°01'612.1
2017-Oct-15 23:01N 36°37' E 013°53'612.0
2017-Oct-15 22:30N 36°39' E 013°46'612.0
2017-Oct-15 22:00N 36°41' E 013°39'612.1
2017-Oct-15 21:30N 36°42' E 013°32'612.0
2017-Oct-15 21:00N 36°44' E 013°25'611.8
2017-Oct-15 20:30N 36°46' E 013°18'611.7
2017-Oct-15 20:00N 36°48' E 013°11'611.7
2017-Oct-15 19:30N 36°50' E 013°04'611.7
2017-Oct-15 19:00N 36°52' E 012°57'611.6
2017-Oct-15 18:30N 36°54' E 012°50'611.9
2017-Oct-15 18:00N 36°56' E 012°43'612.2
2017-Oct-15 17:30N 36°58' E 012°36'611.9
2017-Oct-15 17:00N 36°60' E 012°29'911.5
2017-Oct-15 16:14N 37°02' E 012°18'311.6
2017-Oct-15 16:00N 37°03' E 012°15'611.5
2017-Oct-15 15:30N 37°06' E 012°08'27412.6
2017-Oct-14 17:47N 37°22' E 006°25'9411.0
2017-Oct-14 09:15N 37°11' E 004°27'311.6
2017-Oct-14 09:00N 37°11' E 004°24'611.5
2017-Oct-14 08:28N 37°10' E 004°16'811.6
2017-Oct-14 07:45N 37°09' E 004°06'4311.8
2017-Oct-14 04:06N 37°02' E 003°13'112.2
2017-Oct-14 03:59N 37°02' E 003°11'1812.1
2017-Oct-14 02:30N 36°58' E 002°49'612.0
2017-Oct-14 02:00N 36°57' E 002°41'611.7
2017-Oct-14 01:30N 36°57' E 002°34'611.7
2017-Oct-14 01:00N 36°56' E 002°27'611.8
2017-Oct-14 00:27N 36°55' E 002°19'612.0
2017-Oct-13 23:58N 36°54' E 002°12'612.0
2017-Oct-13 23:30N 36°54' E 002°05'612.1
2017-Oct-13 23:00N 36°53' E 001°57'612.0
2017-Oct-13 22:30N 36°52' E 001°50'711.8
2017-Oct-13 21:54N 36°51' E 001°41'511.8
2017-Oct-13 21:30N 36°50' E 001°35'612.0
2017-Oct-13 21:00N 36°49' E 001°28'612.5
2017-Oct-13 20:30N 36°48' E 001°20'612.3
2017-Oct-13 20:00N 36°47' E 001°13'612.1
2017-Oct-13 19:30N 36°46' E 001°05'611.9
2017-Oct-13 19:00N 36°46' E 000°58'611.8
2017-Oct-13 18:30N 36°45' E 000°51'612.3
2017-Oct-13 18:00N 36°44' E 000°43'612.3
2017-Oct-13 17:30N 36°43' E 000°35'612.5
2017-Oct-13 17:00N 36°42' E 000°28'612.4
2017-Oct-13 16:30N 36°41' E 000°20'612.4
2017-Oct-13 16:00N 36°40' E 000°12'612.3
2017-Oct-13 15:30N 36°39' E 000°05'612.3
2017-Oct-13 15:00N 36°38' W 000°03'712.3
2017-Oct-13 14:25N 36°37' W 000°12'712.3
2017-Oct-13 13:51N 36°36' W 000°20'612.3
2017-Oct-13 13:24N 36°35' W 000°27'512.3
2017-Oct-13 13:00N 36°34' W 000°33'612.3
2017-Oct-13 12:30N 36°33' W 000°40'612.5
2017-Oct-13 12:00N 36°32' W 000°48'712.4
2017-Oct-13 11:25N 36°31' W 000°57'712.3
2017-Oct-13 10:52N 36°30' W 001°05'912.2
2017-Oct-13 10:07N 36°29' W 001°17'112.2
2017-Oct-13 10:00N 36°28' W 001°18'612.5
2017-Oct-13 09:30N 36°27' W 001°26'714.4
2017-Oct-13 09:00N 36°26' W 001°35'917.6
2017-Oct-13 08:30N 36°25' W 001°45'1017.4
2017-Oct-13 07:55N 36°23' W 001°58'14714.5
2017-Oct-12 21:45N 36°01' W 004°59'311.4
2017-Oct-12 21:27N 36°01' W 005°03'511.9
2017-Oct-12 21:00N 36°01' W 005°09'612.1
2017-Oct-12 20:30N 35°60' W 005°17'611.9
2017-Oct-12 20:00N 35°58' W 005°24'611.4
2017-Oct-12 19:30N 35°56' W 005°30'510.3
2017-Oct-12 18:59N 35°55' W 005°37'11 8.7
2017-Oct-12 17:45N 35°54' W 005°50'2 9.3
2017-Oct-12 17:30N 35°54' W 005°53'5 9.1
2017-Oct-12 16:59N 35°54' W 005°59'5 9.0
2017-Oct-12 16:28N 35°54' W 006°04'5 9.6
2017-Oct-12 16:00N 35°54' W 006°10'5 9.9
2017-Oct-12 15:30N 35°54' W 006°16'510.1
2017-Oct-12 15:00N 35°54' W 006°22'510.2
2017-Oct-12 14:30N 35°54' W 006°28'510.3
2017-Oct-12 14:00N 35°56' W 006°35'510.6
2017-Oct-12 13:30N 35°57' W 006°41'510.5
2017-Oct-12 12:59N 35°59' W 006°47'510.5
2017-Oct-12 12:29N 36°00' W 006°53'610.7
2017-Oct-12 11:54N 36°02' W 007°01'410.9
2017-Oct-12 11:30N 36°03' W 007°06'510.8
2017-Oct-12 11:00N 36°05' W 007°13'610.8
2017-Oct-12 10:28N 36°06' W 007°19'511.0
2017-Oct-12 10:01N 36°08' W 007°25'611.1
2017-Oct-12 09:30N 36°09' W 007°32'510.9
2017-Oct-12 09:00N 36°11' W 007°38'611.2
2017-Oct-12 08:30N 36°12' W 007°45'611.4
2017-Oct-12 08:00N 36°14' W 007°52'611.2
2017-Oct-12 07:29N 36°16' W 007°59'510.8
2017-Oct-12 06:59N 36°17' W 008°05'511.1
2017-Oct-12 06:30N 36°19' W 008°12'611.4
2017-Oct-12 06:01N 36°20' W 008°18'611.6
2017-Oct-12 05:30N 36°22' W 008°25'611.5
2017-Oct-12 05:00N 36°23' W 008°32'611.9
2017-Oct-12 04:30N 36°25' W 008°39'611.6
2017-Oct-12 03:57N 36°27' W 008°47'511.5
2017-Oct-12 03:30N 36°28' W 008°53'612.1
2017-Oct-12 02:59N 36°30' W 009°01'612.3
2017-Oct-12 02:30N 36°31' W 009°08'612.2
2017-Oct-12 02:00N 36°33' W 009°15'611.7
2017-Oct-12 01:30N 36°36' W 009°21'1111.7
2017-Oct-12 00:34N 36°45' W 009°30'211.3
2017-Oct-12 00:26N 36°46' W 009°31'511.2
2017-Oct-12 00:01N 36°50' W 009°34'5011.3
2017-Oct-11 19:34N 37°39' W 009°48'111.4
2017-Oct-11 19:26N 37°40' W 009°48'511.5
2017-Oct-11 19:00N 37°45' W 009°50'611.7
2017-Oct-11 18:30N 37°51' W 009°51'611.6
2017-Oct-11 18:00N 37°57' W 009°53'612.1
2017-Oct-11 17:30N 38°02' W 009°54'611.7
2017-Oct-11 17:00N 38°08' W 009°56'24012.4
2017-Oct-10 21:42N 42°08' W 010°06'  

Dump ship's entire track history